Time;durP1;ratioP1;P1;durP2;ratioP2;P2;SDS_P1;SDS_P2;PMS_P1;PMS_P2;Temp;Humidity;BMP_temperature;BMP_pressure;BME280_temperature;BME280_humidity;BME280_pressure;Samples;Min_cycle;Max_cycle;Signal;HPM_P1;HPM_P2
2022/01/29 14:11:56;;;;;;;;;;;14.00;40.90;;;;;;5109990;27;19930;-72
2022/01/29 14:14:22;;;;;;;;;;;;;;;;;;5095577;28;19999;-71
2022/01/29 14:16:48;;;;;;;;;;;;;;;;;;5100609;28;19973;-71
2022/01/29 14:19:16;;;;;;;;;;;;;;;;;;5093595;28;20019;-72
2022/01/29 14:21:42;;;;;;;;;;;;;;;;;;5088043;28;20299;-71
2022/01/29 14:24:08;;;;;;;;;;;;;;;;;;5087712;28;19912;-72
2022/01/29 14:26:34;;;;;;;;;;;;;;;;;;5087104;28;19916;-72
2022/01/29 14:28:59;;;;;;;;;;;21.80;23.40;;;;;;5087523;28;19916;-72
2022/01/29 14:31:25;;;;;;;;;;;21.90;23.20;;;;;;5087032;28;19920;-71
2022/01/29 14:33:51;;;;;;;;;;;;;;;;;;5081716;28;19913;-71
2022/01/29 14:36:16;;;;;;;;;;;;;;;;;;5080800;28;19917;-72
2022/01/29 14:38:42;;;;;;;;;;;;;;;;;;5086476;28;19916;-69
2022/01/29 14:41:08;;;;;;;;;;;;;;;;;;5087009;28;20303;-69
2022/01/29 14:43:34;;;;;;;;;;;;;;;;;;5086503;28;19927;-70
2022/01/29 14:46:01;;;;;;;;;;;;;;;;;;5087618;28;19919;-71
2022/01/29 14:48:27;;;;;;;;;;;;;;;;;;5087177;28;19912;-69
2022/01/29 14:50:53;;;;;;;;;;;;;;;;;;5086717;28;19917;-71
2022/01/29 14:53:20;;;;;;;;;;;;;;;;;;5081493;28;19916;-71
2022/01/29 14:55:46;;;;;;;;;;;;;;;;;;5085366;28;19947;-70
2022/01/29 14:58:11;;;;;;;;;;;;;;;;;;5086618;28;19978;-70
2022/01/29 15:00:37;;;;;;;;;;;21.80;22.90;;;;;;5087094;28;19920;-71
2022/01/29 15:03:03;;;;;;;;;;;;;;;;;;5089511;28;20368;-71
2022/01/29 15:05:29;;;;;;;;;;;;;;;;;;5087266;28;20305;-71
2022/01/29 15:07:56;;;;;;;;;;;;;;;;;;5086791;28;19920;-71
2022/01/29 15:10:21;;;;;;;;;;;;;;;;;;5086544;28;19924;-71
2022/01/29 15:12:47;;;;;;;;;;;;;;;;;;5086706;28;20273;-71
2022/01/29 15:15:13;;;;;;;;;;;;;;;;;;5086950;28;19923;-71
2022/01/29 15:17:39;;;;;;;;;;;;;;;;;;5086090;28;20417;-71
2022/01/29 15:20:07;;;;;;;;;;;21.80;23.10;;;;;;5086651;28;20287;-71
2022/01/29 15:22:33;;;;;;;;;;;21.80;23.00;;;;;;5076837;28;19919;-71
2022/01/29 15:24:59;;;;;;;;;;;21.80;23.10;;;;;;5073315;28;19938;-71
2022/01/29 15:27:24;;;;;;;;;;;21.80;23.00;;;;;;5066497;28;19935;-70
2022/01/29 15:29:50;;;;;;;;;;;;;;;;;;5072303;28;20064;-70
2022/01/29 15:32:17;;;;;;;;;;;;;;;;;;5073074;28;19923;-70
2022/01/29 15:34:43;;;;;;;;;;;;;;;;;;5072910;28;19920;-71
2022/01/29 15:37:09;;;;;;;;;;;;;;;;;;5072722;28;19943;-70
2022/01/29 15:39:35;;;;;;;;;;;21.70;22.90;;;;;;5069947;28;19913;-72
2022/01/29 15:42:01;;;;;;;;;;;;;;;;;;5070145;28;19919;-72
2022/01/29 15:44:26;;;;;;;;;;;21.80;22.90;;;;;;5073097;28;20003;-69
2022/01/29 15:46:52;;;;;;;;;;;;;;;;;;5078795;28;19967;-73
2022/01/29 15:49:18;;;;;;;;;;;;;;;;;;5071100;28;19913;-70
2022/01/29 15:51:44;;;;;;;;;;;;;;;;;;5070471;28;20002;-70
2022/01/29 15:54:10;;;;;;;;;;;21.90;21.90;;;;;;5072284;28;20003;-74
2022/01/29 15:56:35;;;;;;;;;;;22.00;22.60;;;;;;5072780;28;19959;-73
2022/01/29 15:59:01;;;;;;;;;;;;;;;;;;5078655;28;19935;-74
2022/01/29 16:01:28;;;;;;;;;;;;;;;;;;5072641;28;19917;-76
2022/01/29 16:03:54;;;;;;;;;;;21.90;22.70;;;;;;5071892;28;20292;-74
2022/01/29 16:06:20;;;;;;;;;;;;;;;;;;5072493;28;19912;-77
2022/01/29 16:08:46;;;;;;;;;;;;;;;;;;5071955;28;19956;-74
2022/01/29 16:11:12;;;;;;;;;;;22.00;22.50;;;;;;5072586;28;20368;-74
2022/01/29 16:13:38;;;;;;;;;;;22.00;22.30;;;;;;5072400;28;19912;-74
2022/01/29 16:16:05;;;;;;;;;;;22.00;22.30;;;;;;5072319;28;19913;-73
2022/01/29 16:18:31;;;;;;;;;;;;;;;;;;5072453;28;19958;-77
2022/01/29 16:20:57;;;;;;;;;;;;;;;;;;5071947;28;19916;-73
2022/01/29 16:23:23;;;;;;;;;;;22.00;22.20;;;;;;5071363;28;20300;-73
2022/01/29 16:25:48;;;;;;;;;;;22.00;22.20;;;;;;5071388;28;19952;-73
2022/01/29 16:28:15;;;;;;;;;;;;;;;;;;5072212;28;19912;-76
2022/01/29 16:30:42;;;;;;;;;;;22.00;22.20;;;;;;5071795;28;20507;-73
2022/01/29 16:33:08;;;;;;;;;;;;;;;;;;5071638;28;20269;-74
2022/01/29 16:35:34;;;;;;;;;;;;;;;;;;5072258;28;19939;-76
2022/01/29 16:38:03;;;;;;;;;;;;;;;;;;5071976;28;19913;-76
2022/01/29 16:40:29;;;;;;;;;;;;;;;;;;5072086;28;20441;-74
2022/01/29 16:42:54;;;;;;;;;;;21.90;22.30;;;;;;5071900;28;20054;-74
2022/01/29 16:45:22;;;;;;;;;;;;;;;;;;5072347;28;19912;-76
2022/01/29 16:47:47;;;;;;;;;;;21.90;22.40;;;;;;5072109;28;19912;-74
2022/01/29 16:50:13;;;;;;;;;;;21.90;22.40;;;;;;5072147;28;19920;-74
2022/01/29 16:52:39;;;;;;;;;;;;;;;;;;5071964;28;20402;-74
2022/01/29 16:55:05;;;;;;;;;;;;;;;;;;5071593;28;19912;-74
2022/01/29 16:57:30;;;;;;;;;;;;;;;;;;5071720;28;19958;-76
2022/01/29 16:59:56;;;;;;;;;;;;;;;;;;5071691;28;19924;-74
2022/01/29 17:02:22;;;;;;;;;;;;;;;;;;5071952;28;19912;-73
2022/01/29 17:04:48;;;;;;;;;;;21.80;22.60;;;;;;5072003;28;19997;-73
2022/01/29 17:07:16;;;;;;;;;;;;;;;;;;5071353;28;20010;-73
2022/01/29 17:09:41;;;;;;;;;;;21.80;22.50;;;;;;5071368;28;20368;-73
2022/01/29 17:12:07;;;;;;;;;;;;;;;;;;5071730;28;19958;-75
2022/01/29 17:14:33;;;;;;;;;;;;;;;;;;5071269;28;19966;-74
2022/01/29 17:16:59;;;;;;;;;;;;;;;;;;5071192;28;20007;-76
2022/01/29 17:19:25;;;;;;;;;;;;;;;;;;5069993;28;19916;-73
2022/01/29 17:21:51;;;;;;;;;;;;;;;;;;5062040;28;19928;-78
2022/01/29 17:24:17;;;;;;;;;;;;;;;;;;5069067;28;20380;-73
2022/01/29 17:26:43;;;;;;;;;;;;;;;;;;5070913;28;19917;-76
2022/01/29 17:29:09;;;;;;;;;;;;;;;;;;5070116;28;19912;-76
2022/01/29 17:31:35;;;;;;;;;;;;;;;;;;5068943;28;20338;-73
2022/01/29 17:34:01;;;;;;;;;;;;;;;;;;5070955;28;19968;-74
2022/01/29 17:36:27;;;;;;;;;;;;;;;;;;5070708;28;19920;-75
2022/01/29 17:38:54;;;;;;;;;;;21.90;22.70;;;;;;5070865;28;19999;-71
2022/01/29 17:41:21;;;;;;;;;;;;;;;;;;5069948;28;20372;-72
2022/01/29 17:43:48;;;;;;;;;;;21.90;22.70;;;;;;5071271;28;19919;-72
2022/01/29 17:46:14;;;;;;;;;;;;;;;;;;5070746;28;19920;-71
2022/01/29 17:48:39;;;;;;;;;;;21.90;22.70;;;;;;5071532;28;19917;-71
2022/01/29 17:51:05;;;;;;;;;;;21.90;22.70;;;;;;5071146;28;19912;-71
2022/01/29 17:53:34;;;;;;;;;;;21.90;22.70;;;;;;5070918;28;19921;-72
2022/01/29 17:55:59;;;;;;;;;;;21.90;22.80;;;;;;5071129;28;19913;-71
2022/01/29 17:58:25;;;;;;;;;;;22.00;22.70;;;;;;5071218;28;20280;-71
2022/01/29 18:00:53;;;;;;;;;;;;;;;;;;5070891;28;19971;-72
2022/01/29 18:03:18;;;;;;;;;;;;;;;;;;5071158;28;20457;-73
2022/01/29 18:05:44;;;;;;;;;;;;;;;;;;5071180;28;19921;-71
2022/01/29 18:08:11;;;;;;;;;;;;;;;;;;5070839;28;19913;-71
2022/01/29 18:10:37;;;;;;;;;;;;;;;;;;5070346;28;19916;-73
2022/01/29 18:13:03;;;;;;;;;;;;;;;;;;5070802;28;20284;-74
2022/01/29 18:15:29;;;;;;;;;;;;;;;;;;5070783;28;19920;-71
2022/01/29 18:17:55;;;;;;;;;;;;;;;;;;5070890;28;19916;-71
2022/01/29 18:20:21;;;;;;;;;;;;;;;;;;5070675;28;20062;-71
2022/01/29 18:22:46;;;;;;;;;;;22.00;23.10;;;;;;5070611;28;20375;-71
2022/01/29 18:25:12;;;;;;;;;;;22.00;22.90;;;;;;5070951;28;20388;-71
2022/01/29 18:27:44;;;;;;;;;;;22.10;23.00;;;;;;5070609;28;21403;-72
2022/01/29 18:30:10;;;;;;;;;;;22.10;22.90;;;;;;5070665;28;19919;-71
2022/01/29 18:32:35;;;;;;;;;;;22.10;22.90;;;;;;5071309;28;19916;-72
2022/01/29 18:35:01;;;;;;;;;;;;;;;;;;5071158;28;19908;-75
2022/01/29 18:37:27;;;;;;;;;;;;;;;;;;5070823;28;19935;-71
2022/01/29 18:39:58;;;;;;;;;;;;;;;;;;5070369;28;19912;-71
2022/01/29 18:42:24;;;;;;;;;;;;;;;;;;5070932;28;19912;-71
2022/01/29 18:44:49;;;;;;;;;;;;;;;;;;5070812;28;19920;-71
2022/01/29 18:47:15;;;;;;;;;;;;;;;;;;5070650;28;19912;-71
2022/01/29 18:49:41;;;;;;;;;;;22.00;22.90;;;;;;5070209;28;20375;-72
2022/01/29 18:52:07;;;;;;;;;;;22.10;22.80;;;;;;5070418;28;19912;-71
2022/01/29 18:54:32;;;;;;;;;;;22.10;22.90;;;;;;5070649;28;19912;-71
2022/01/29 18:56:58;;;;;;;;;;;;;;;;;;5071012;28;19912;-72
2022/01/29 18:59:25;;;;;;;;;;;;;;;;;;5074322;28;20394;-73
2022/01/29 19:01:51;;;;;;;;;;;;;;;;;;5073921;28;19920;-72
2022/01/29 19:04:16;;;;;;;;;;;22.10;23.00;;;;;;5074266;28;19912;-71
2022/01/29 19:06:42;;;;;;;;;;;;;;;;;;5073198;28;20303;-72
2022/01/29 19:09:10;;;;;;;;;;;;;;;;;;5074132;28;19913;-73
2022/01/29 19:11:35;;;;;;;;;;;22.10;23.10;;;;;;5073923;28;19969;-70
2022/01/29 19:14:03;;;;;;;;;;;;;;;;;;5073236;28;19994;-73
2022/01/29 19:16:29;;;;;;;;;;;;;;;;;;5072060;28;20112;-71
2022/01/29 19:18:55;;;;;;;;;;;;;;;;;;5073923;28;19917;-69
2022/01/29 19:21:21;;;;;;;;;;;;;;;;;;5074076;28;20476;-71
2022/01/29 19:23:47;;;;;;;;;;;;;;;;;;5073580;28;19920;-71
2022/01/29 19:26:14;;;;;;;;;;;;;;;;;;5074062;28;19913;-73
2022/01/29 19:28:40;;;;;;;;;;;22.30;23.70;;;;;;5073491;28;19921;-72
2022/01/29 19:31:06;;;;;;;;;;;;;;;;;;5073335;28;20719;-72
2022/01/29 19:33:31;;;;;;;;;;;22.40;23.90;;;;;;5073838;28;19940;-72
2022/01/29 19:35:57;;;;;;;;;;;;;;;;;;5073576;28;19995;-73
2022/01/29 19:38:23;;;;;;;;;;;;;;;;;;5077284;28;19935;-71
2022/01/29 19:40:48;;;;;;;;;;;22.50;23.70;;;;;;5076496;28;19925;-70
2022/01/29 19:43:14;;;;;;;;;;;22.50;23.70;;;;;;5073504;28;19913;-71
2022/01/29 19:45:41;;;;;;;;;;;;;;;;;;5074017;28;19912;-70
2022/01/29 19:48:07;;;;;;;;;;;;;;;;;;5073016;28;20059;-70
2022/01/29 19:50:33;;;;;;;;;;;22.50;23.90;;;;;;5073791;28;19952;-71
2022/01/29 19:52:58;;;;;;;;;;;22.60;23.80;;;;;;5073111;28;19916;-71
2022/01/29 19:55:24;;;;;;;;;;;;;;;;;;5075414;28;19966;-74
2022/01/29 19:57:50;;;;;;;;;;;;;;;;;;5073834;28;19912;-74
2022/01/29 20:00:16;;;;;;;;;;;;;;;;;;5072940;28;19920;-76
2022/01/29 20:02:45;;;;;;;;;;;;;;;;;;5073201;28;19942;-76
2022/01/29 20:05:12;;;;;;;;;;;22.70;23.80;;;;;;5073265;28;19912;-74
2022/01/29 20:07:38;;;;;;;;;;;;;;;;;;5073850;28;19935;-72
2022/01/29 20:10:08;;;;;;;;;;;;;;;;;;5072672;28;20364;-74
2022/01/29 20:12:35;;;;;;;;;;;;;;;;;;5073125;28;19989;-74
2022/01/29 20:15:02;;;;;;;;;;;22.80;23.70;;;;;;5072911;28;19915;-72
2022/01/29 20:17:28;;;;;;;;;;;22.80;23.70;;;;;;5072384;28;19916;-71
2022/01/29 20:19:53;;;;;;;;;;;22.90;23.70;;;;;;5072349;28;19912;-71
2022/01/29 20:22:19;;;;;;;;;;;;;;;;;;5072768;28;19999;-75
2022/01/29 20:24:45;;;;;;;;;;;;;;;;;;5074602;28;19915;-75
2022/01/29 20:27:11;;;;;;;;;;;;;;;;;;5072348;28;20331;-71
2022/01/29 20:29:37;;;;;;;;;;;;;;;;;;5071923;28;20556;-71
2022/01/29 20:32:02;;;;;;;;;;;23.00;23.60;;;;;;5072343;28;20291;-71
2022/01/29 20:34:28;;;;;;;;;;;23.00;23.40;;;;;;5069769;28;19923;-72
2022/01/29 20:36:54;;;;;;;;;;;23.00;23.60;;;;;;5070032;28;19912;-70
2022/01/29 20:39:19;;;;;;;;;;;;;;;;;;5071040;28;19947;-72
2022/01/29 20:41:45;;;;;;;;;;;;;;;;;;5071020;28;20405;-70
2022/01/29 20:44:11;;;;;;;;;;;;;;;;;;5071487;28;19954;-70
2022/01/29 20:46:38;;;;;;;;;;;;;;;;;;5071053;28;19951;-71
2022/01/29 20:49:04;;;;;;;;;;;;;;;;;;5070618;28;19917;-69
2022/01/29 20:51:31;;;;;;;;;;;23.10;23.10;;;;;;5071808;28;19920;-70
2022/01/29 20:53:57;;;;;;;;;;;23.20;22.80;;;;;;5070010;28;19920;-70
2022/01/29 20:56:23;;;;;;;;;;;23.20;22.80;;;;;;5071207;28;19913;-71
2022/01/29 20:58:48;;;;;;;;;;;23.20;22.90;;;;;;5071291;28;19926;-70
2022/01/29 21:01:14;;;;;;;;;;;;;;;;;;5072071;28;19912;-72
2022/01/29 21:03:41;;;;;;;;;;;;;;;;;;5072276;28;19957;-71
2022/01/29 21:06:07;;;;;;;;;;;23.20;22.70;;;;;;5070931;28;19920;-71
2022/01/29 21:08:33;;;;;;;;;;;23.20;23.10;;;;;;5070882;28;19943;-69
2022/01/29 21:10:59;;;;;;;;;;;;;;;;;;5061700;28;19971;-69
2022/01/29 21:13:30;;;;;;;;;;;23.10;22.80;;;;;;5069036;28;19958;-69
2022/01/29 21:15:56;;;;;;;;;;;;;;;;;;5071101;28;19952;-72
2022/01/29 21:18:22;;;;;;;;;;;;;;;;;;5072079;28;19954;-71
2022/01/29 21:20:47;;;;;;;;;;;22.90;23.10;;;;;;5067159;28;19917;-71
2022/01/29 21:23:13;;;;;;;;;;;22.90;23.40;;;;;;5065036;28;19946;-71
2022/01/29 21:25:43;;;;;;;;;;;;;;;;;;5071325;28;19920;-70
2022/01/29 21:28:09;;;;;;;;;;;;;;;;;;5071518;28;19974;-70
2022/01/29 21:30:35;;;;;;;;;;;22.90;23.50;;;;;;5071805;28;20030;-70
2022/01/29 21:33:05;;;;;;;;;;;;;;;;;;5071973;28;19962;-71
2022/01/29 21:35:31;;;;;;;;;;;;;;;;;;5072121;28;19951;-72
2022/01/29 21:37:57;;;;;;;;;;;;;;;;;;5071729;28;20343;-68
2022/01/29 21:40:24;;;;;;;;;;;;;;;;;;5071143;28;19963;-71
2022/01/29 21:42:50;;;;;;;;;;;22.90;23.20;;;;;;5069845;28;19924;-71
2022/01/29 21:45:15;;;;;;;;;;;22.90;23.30;;;;;;5072112;28;19924;-71
2022/01/29 21:47:41;;;;;;;;;;;;;;;;;;5071418;28;20041;-72
2022/01/29 21:50:07;;;;;;;;;;;;;;;;;;5071195;28;20470;-72
2022/01/29 21:52:33;;;;;;;;;;;22.90;23.20;;;;;;5071782;28;19909;-71
2022/01/29 21:54:58;;;;;;;;;;;22.90;23.20;;;;;;5071298;28;19924;-71
2022/01/29 21:57:24;;;;;;;;;;;;;;;;;;5071285;28;19904;-71
2022/01/29 21:59:50;;;;;;;;;;;22.90;23.50;;;;;;5071235;28;19970;-72
2022/01/29 22:02:16;;;;;;;;;;;;;;;;;;5071404;28;19952;-72
2022/01/29 22:04:42;;;;;;;;;;;;;;;;;;5070795;28;19981;-74
2022/01/29 22:07:08;;;;;;;;;;;;;;;;;;5069486;28;19928;-74
2022/01/29 22:09:34;;;;;;;;;;;;;;;;;;5071043;28;19915;-71
2022/01/29 22:11:59;;;;;;;;;;;23.00;23.30;;;;;;5071583;28;19921;-70
2022/01/29 22:14:25;;;;;;;;;;;23.00;23.20;;;;;;5071578;28;19913;-71
2022/01/29 22:16:51;;;;;;;;;;;;;;;;;;5071130;28;19928;-72
2022/01/29 22:19:16;;;;;;;;;;;23.00;23.20;;;;;;5079991;28;19912;-71
2022/01/29 22:21:42;;;;;;;;;;;;;;;;;;5091669;28;19923;-72
2022/01/29 22:24:08;;;;;;;;;;;;;;;;;;5078023;28;19960;-71
2022/01/29 22:26:34;;;;;;;;;;;;;;;;;;5071087;28;20018;-72
2022/01/29 22:29:00;;;;;;;;;;;22.90;23.60;;;;;;5070530;28;20311;-73
2022/01/29 22:31:26;;;;;;;;;;;23.00;23.60;;;;;;5071142;28;19923;-72
2022/01/29 22:33:51;;;;;;;;;;;22.90;23.40;;;;;;5075081;28;19970;-73
2022/01/29 22:36:19;;;;;;;;;;;;;;;;;;5074724;28;20351;-73
2022/01/29 22:38:45;;;;;;;;;;;;;;;;;;5075161;28;20010;-72
2022/01/29 22:41:10;;;;;;;;;;;;;;;;;;5073910;28;20050;-77
2022/01/29 22:43:36;;;;;;;;;;;23.00;23.40;;;;;;5083478;28;19908;-73
2022/01/29 22:46:02;;;;;;;;;;;23.10;23.60;;;;;;5090684;28;19954;-74
2022/01/29 22:48:27;;;;;;;;;;;23.10;23.60;;;;;;5074889;28;19938;-74
2022/01/29 22:50:53;;;;;;;;;;;;;;;;;;5074772;28;20003;-71
2022/01/29 22:53:19;;;;;;;;;;;;;;;;;;5074798;28;19913;-74
2022/01/29 22:55:45;;;;;;;;;;;;;;;;;;5074240;28;20004;-72
2022/01/29 22:58:11;;;;;;;;;;;;;;;;;;5074588;28;19932;-73
2022/01/29 23:00:37;;;;;;;;;;;23.20;23.20;;;;;;5074380;28;19963;-73
2022/01/29 23:03:03;;;;;;;;;;;23.20;23.20;;;;;;5074862;28;19916;-72
2022/01/29 23:05:29;;;;;;;;;;;;;;;;;;5074386;28;20388;-73
2022/01/29 23:07:55;;;;;;;;;;;23.20;23.20;;;;;;5074431;28;19952;-73
2022/01/29 23:10:28;;;;;;;;;;;23.20;23.20;;;;;;5073904;28;20012;-73
2022/01/29 23:15:21;;;;;;;;;;;;;;;;;;5074701;28;20380;-73
2022/01/29 23:17:47;;;;;;;;;;;23.20;23.00;;;;;;5074192;28;20406;-73
2022/01/29 23:25:29;;;;;;;;;;;;;;;;;;5074329;28;20334;-73
2022/01/29 23:28:11;;;;;;;;;;;23.20;23.00;;;;;;5072739;28;19909;-73
2022/01/29 23:30:38;;;;;;;;;;;;;;;;;;5074099;28;19999;-76
2022/01/29 23:35:35;;;;;;;;;;;23.20;22.80;;;;;;5073991;28;19919;-73
2022/01/29 23:38:01;;;;;;;;;;;;;;;;;;5073940;28;20322;-75
2022/01/29 23:40:32;;;;;;;;;;;23.20;22.70;;;;;;5074081;28;19916;-73
2022/01/29 23:43:04;;;;;;;;;;;23.20;22.70;;;;;;5073284;28;19913;-72
2022/01/29 23:45:46;;;;;;;;;;;23.20;22.70;;;;;;5074093;28;19909;-73
2022/01/29 23:50:56;;;;;;;;;;;;;;;;;;5073833;28;20330;-74
2022/01/29 23:53:23;;;;;;;;;;;23.10;22.60;;;;;;5073942;28;19909;-73
2022/01/29 23:55:49;;;;;;;;;;;;;;;;;;5072425;28;19927;-75
2022/01/29 23:58:15;;;;;;;;;;;;;;;;;;5073490;28;19915;-75
